الصفحة الرئيسية
METAR-TAF:

METAR-TAF

مطار :

مطار شانغي سنغافورة

سنغافورة, سنغافورة

دائرة عرض: 01-22N, خط طول: 103-59E, ارتفاع: 5 متر

مراقبة الطقس الحالي

تاريخ ووقت الإصدار 39 دقيقة قبل الساعة 20:30UTC
ريح 3 عقدة من الشمال الشرقي, الاتجاه يتراوح بين الشمال و الشمال الشرقي
درجة الحرارة 28°درجة مئوية
الرطوبة 89%
ضغط 1010 hPa
الرؤية 10 كم أو أكثر
غيوم قليلة على ارتفاع 1800 قدم
غيوم متفرقة على ارتفاع 16000 قدم
غيوم مفككة على ارتفاع 30000 قدم

METAR: WSSS 292030Z 04003KT 350V050 9999 FEW018 SCT160 BKN300 28/26 Q1010 NOSIG

زمن: 05:09 (21:09 UTC)

توقعات

تاريخ ووقت الإصدار 4ساعات و 9 دقيقة قبل الساعة 17:00UTC
التوقعات صالحة من29 الساعة 18 UTC إلى 31 الساعة 00 UTC
ريح 7 عقدة من الشرق/الجنوب الشرقي
الرؤية 10 كم أو أكثر
غيوم قليلة على ارتفاع 1500 قدم
غيوم متفرقة على ارتفاع 2000 قدم
مؤقت
من 30 الساعة 03 UTC إلى 30 الساعة 06 UTC
الرؤية: 3000 متر
غيوم قليلة على ارتفاع 1200 قدم, مزنة ركامية.
غيوم مفككة على ارتفاع 1500 قدم
عاصفة رعدية, مطر

TAF: WSSS 291700Z 2918/3100 12007KT 9999 FEW015 SCT020 TEMPO 3003/3006 3000 TSRA FEW012CB BKN015

أرصاد الطقس والتوقعات من أكثر من 4000 مطار (تقارير الطقس للمطار METAR والتنبؤ بالطقس بالمطارTAF).

المحطات المتاحة هي النقط الصفراء والحمراء على الخريطة.

حرك المؤشر فوق النقطة لمعرفة اسم المحطة.

ثم انقر لمعرفة أرصاد وتوقعات الطقس.

لتغيير الخارطة: اضغط على الأزرار الخضراء مع رمز الصليب الأسود للتكبير. على الزر الأخضر مع شرطة للتصغير، أو على الأسهم الخضراء للخرائط المجاورة.


METAR-TAF: